Time;durP1;ratioP1;P1;durP2;ratioP2;P2;SDS_P1;SDS_P2;PMS_P1;PMS_P2;Temp;Humidity;BMP_temperature;BMP_pressure;BME280_temperature;BME280_humidity;BME280_pressure;Samples;Min_cycle;Max_cycle;Signal;HPM_P1;HPM_P2
2021/12/14 00:00:17;;;;;;;18.83;11.48;;;;;;;;;;4990292;28;20045;-76
2021/12/14 00:02:44;;;;;;;20.58;11.93;;;;;;;;;;4990022;28;20033;-76
2021/12/14 00:05:12;;;;;;;17.40;11.32;;;;;;;;;;4972700;28;20543;-75
2021/12/14 00:07:38;;;;;;;20.38;11.93;;;;;;;;;;4974332;28;20034;-77
2021/12/14 00:13:07;;;;;;;17.80;11.07;;;;;;;;;;4969206;28;20054;-74
2021/12/14 00:15:33;;;;;;;18.65;12.40;;;;;;;;;;4990319;28;20072;-75
2021/12/14 00:18:03;;;;;;;19.95;12.32;;;;;;;;;;4989746;28;20555;-78
2021/12/14 00:20:28;;;;;;;21.10;12.60;;;;;;;;;;4990098;28;20068;-75
2021/12/14 00:25:48;;;;;;;21.80;12.93;;;;;;;;;;4990105;28;20026;-75
2021/12/14 00:28:32;;;;;;;25.30;13.68;;;;;;;;;;4970000;28;20039;-75
2021/12/14 00:31:00;;;;;;;25.85;13.35;;;;;;;;;;4970412;28;20118;-75
2021/12/14 00:33:33;;;;;;;21.25;13.35;;;;;;;;;;4970536;28;20114;-75
2021/12/14 00:36:00;;;;;;;24.20;13.05;;;;;;;;;;4973467;28;20553;-77
2021/12/14 00:38:26;;;;;;;19.70;12.57;;;;;;;;;;4989651;28;20415;-75
2021/12/14 00:40:55;;;;;;;16.60;11.40;;;;;;;;;;4989675;28;20058;-75
2021/12/14 00:43:22;;;;;;;15.85;11.05;;;;;;;;;;4990126;28;20373;-77
2021/12/14 00:45:47;;;;;;;17.75;11.20;;;;;;;;;;4988138;28;20026;-76
2021/12/14 00:48:14;;;;;;;17.10;11.15;;;;;;;;;;4989831;28;20109;-75
2021/12/14 00:50:43;;;;;;;15.77;11.23;;;;;;;;;;4989803;28;20109;-75
2021/12/14 00:53:09;;;;;;;13.90;9.85;;;;;;;;;;4985165;28;20396;-75
2021/12/14 00:55:40;;;;;;;17.65;10.57;;;;;;;;;;4977282;28;20160;-75
2021/12/14 00:58:06;;;;;;;16.40;10.55;;;;;;;;;;4988861;28;20038;-75
2021/12/14 01:00:36;;;;;;;16.60;10.60;;;;;;;;;;5008352;28;20026;-75
2021/12/14 01:03:03;;;;;;;14.85;10.18;;;;;;;;;;4993053;28;20074;-75
2021/12/14 01:05:33;;;;;;;19.73;10.50;;;;;;;;;;4993421;28;20041;-75
2021/12/14 01:08:00;;;;;;;15.60;10.35;;;;;;;;;;4991519;28;20027;-77
2021/12/14 01:10:37;;;;;;;15.60;11.02;;;;;;;;;;4993297;28;20041;-75
2021/12/14 01:13:07;;;;;;;14.05;10.57;;;;;;;;;;4993421;28;20030;-75
2021/12/14 01:21:18;;;;;;;17.10;11.52;;;;;;;;;;4966253;28;20499;-76
2021/12/14 01:23:45;;;;;;;13.73;10.35;;;;;;;;;;4973508;28;20484;-75
2021/12/14 01:26:16;;;;;;;15.60;10.77;;;;;;;;;;4977222;28;20113;-76
2021/12/14 01:28:43;;;;;;;16.27;8.70;;;;;;;;;;4992624;28;20038;-75
2021/12/14 01:31:20;;;;;;;14.30;8.93;;;;;;;;;;4992628;28;20022;-75
2021/12/14 01:33:49;;;;;;;14.73;8.45;;;;;;;;;;4992710;28;20297;-75
2021/12/14 01:36:31;;;;;;;15.55;9.10;;;;;;;;;;4992677;28;20034;-76
2021/12/14 01:39:21;;;;;;;16.63;9.20;;;;;;;;;;4992426;28;20030;-75
2021/12/14 01:42:01;;;;;;;14.93;9.70;;;;;;;;;;4973972;28;20393;-73
2021/12/14 01:44:40;;;;;;;16.20;10.48;;;;;;;;;;4973268;28;20347;-74
2021/12/14 01:47:10;;;;;;;15.60;10.27;;;;;;;;;;4983359;28;20026;-75
2021/12/14 01:49:36;;;;;;;14.40;10.25;;;;;;;;;;4992380;28;20038;-76
2021/12/14 01:52:08;;;;;;;16.98;10.57;;;;;;;;;;4992248;28;20298;-77
2021/12/14 01:54:41;;;;;;;16.05;10.55;;;;;;;;;;4992336;28;20038;-77
2021/12/14 01:57:09;;;;;;;19.15;11.27;;;;;;;;;;5007056;28;20121;-76
2021/12/14 01:59:38;;;;;;;15.27;9.90;;;;;;;;;;4986098;28;20083;-73
2021/12/14 02:02:20;;;;;;;17.45;10.27;;;;;;;;;;4972729;28;20262;-73
2021/12/14 02:04:51;;;;;;;14.82;9.32;;;;;;;;;;4972721;28;20116;-73
2021/12/14 02:07:18;;;;;;;15.85;9.95;;;;;;;;;;4984010;28;20534;-74
2021/12/14 02:09:52;;;;;;;15.93;9.77;;;;;;;;;;4991509;28;20034;-74
2021/12/14 02:12:21;;;;;;;17.30;10.20;;;;;;;;;;4992121;28;20022;-74
2021/12/14 02:14:48;;;;;;;18.50;10.10;;;;;;;;;;4991906;28;20025;-73
2021/12/14 02:17:18;;;;;;;20.63;11.73;;;;;;;;;;4991489;28;20121;-73
2021/12/14 02:19:45;;;;;;;16.92;10.25;;;;;;;;;;4991655;28;20034;-75
2021/12/14 02:22:10;;;;;;;20.58;10.88;;;;;;;;;;4991814;28;20061;-73
2021/12/14 02:24:38;;;;;;;19.05;10.13;;;;;;;;;;4991887;28;20665;-76
2021/12/14 02:27:04;;;;;;;16.00;10.15;;;;;;;;;;4991544;28;20081;-75
2021/12/14 02:29:32;;;;;;;15.88;10.63;;;;;;;;;;4991127;28;20026;-76
2021/12/14 02:32:07;;;;;;;17.05;10.20;;;;;;;;;;4990356;28;20026;-76
2021/12/14 02:34:38;;;;;;;16.80;10.50;;;;;;;;;;4991553;28;20519;-78
2021/12/14 02:37:04;;;;;;;15.95;10.45;;;;;;;;;;4991242;28;20080;-76
2021/12/14 02:42:22;;;;;;;20.23;11.55;;;;;;;;;;4972063;28;20546;-73
2021/12/14 02:44:50;;;;;;;15.93;11.15;;;;;;;;;;4972008;28;20066;-74
2021/12/14 02:47:17;;;;;;;15.57;10.07;;;;;;;;;;4982070;28;20026;-74
2021/12/14 02:49:44;;;;;;;16.67;10.73;;;;;;;;;;4990496;28;20030;-74
2021/12/14 02:52:14;;;;;;;14.82;10.07;;;;;;;;;;4991560;28;20022;-73
2021/12/14 02:54:41;;;;;;;18.60;9.95;;;;;;;;;;4991091;28;20034;-76
2021/12/14 02:57:18;;;;;;;16.35;10.55;;;;;;;;;;4991116;28;20108;-76
2021/12/14 02:59:45;;;;;;;14.80;9.98;;;;;;;;;;4991072;28;20026;-74
2021/12/14 03:02:16;;;;;;;14.20;9.75;;;;;;;;;;4990671;28;20080;-73
2021/12/14 03:04:46;;;;;;;17.08;10.52;;;;;;;;;;4986634;28;20042;-75
2021/12/14 03:07:12;;;;;;;17.95;10.35;;;;;;;;;;4979601;28;20042;-73
2021/12/14 03:09:57;;;;;;;15.82;10.32;;;;;;;;;;4991607;28;20028;-75
2021/12/14 03:12:30;;;;;;;15.75;9.73;;;;;;;;;;4991267;28;20435;-75
2021/12/14 03:15:01;;;;;;;;;;;;;;;;;;4991269;28;20027;-75
2021/12/14 03:17:26;;;;;;;16.48;10.15;;;;;;;;;;4990353;28;20318;-74
2021/12/14 03:19:55;;;;;;;12.98;8.93;;;;;;;;;;4990389;28;20033;-75
2021/12/14 03:22:58;;;;;;;15.93;9.90;;;;;;;;;;4990258;28;20094;-75
2021/12/14 03:25:24;;;;;;;;;;;;;;;;;;4976107;28;20105;-75
2021/12/14 03:27:52;;;;;;;19.67;12.35;;;;;;;;;;4990535;28;19949;-75
2021/12/14 03:30:32;;;;;;;18.20;11.73;;;;;;;;;;4990393;28;20060;-75
2021/12/14 03:33:04;;;;;;;20.38;12.18;;;;;;;;;;4989411;28;20022;-75
2021/12/14 03:35:46;;;;;;;16.45;10.85;;;;;;;;;;4990615;28;20065;-76
2021/12/14 03:38:15;;;;;;;15.93;9.97;;;;;;;;;;4990096;28;20481;-75
2021/12/14 03:40:41;;;;;;;14.60;10.13;;;;;;;;;;4990365;28;20734;-75
2021/12/14 03:43:07;;;;;;;15.85;10.50;;;;;;;;;;4990335;28;20401;-75
2021/12/14 03:45:32;;;;;;;15.70;10.35;;;;;;;;;;4989904;28;20030;-75
2021/12/14 03:48:01;;;;;;;36.20;21.83;;;;;;;;;;4990360;28;20109;-75
2021/12/14 03:50:41;;;;;;;20.20;13.18;;;;;;;;;;4990024;28;20022;-75
2021/12/14 03:53:10;;;;;;;17.65;10.68;;;;;;;;;;4990195;28;20022;-75
2021/12/14 03:55:42;;;;;;;17.75;11.25;;;;;;;;;;4989638;28;20080;-74
2021/12/14 03:58:12;;;;;;;17.67;11.10;;;;;;;;;;4990072;28;20488;-75
2021/12/14 04:00:42;;;;;;;16.40;10.40;;;;;;;;;;4990006;28;20396;-75
2021/12/14 04:03:11;;;;;;;19.67;11.55;;;;;;;;;;4990096;28;20388;-76
2021/12/14 04:05:41;;;;;;;22.85;14.77;;;;;;;;;;4989919;28;20460;-75
2021/12/14 04:08:07;;;;;;;22.38;13.27;;;;;;;;;;4989478;28;20123;-75
2021/12/14 04:10:35;;;;;;;19.20;12.38;;;;;;;;;;4981946;28;20110;-77
2021/12/14 04:13:01;;;;;;;21.50;12.27;;;;;;;;;;4972458;28;20030;-76
2021/12/14 04:15:27;;;;;;;19.88;11.48;;;;;;;;;;4982034;28;20040;-78
2021/12/14 04:17:52;;;;;;;19.70;11.52;;;;;;;;;;4992178;28;20062;-77
2021/12/14 04:20:29;;;;;;;24.90;13.02;;;;;;;;;;5007016;28;20037;-78
2021/12/14 04:22:55;;;;;;;24.67;11.95;;;;;;;;;;4992286;28;20110;-76
2021/12/14 04:25:27;;;;;;;21.80;12.27;;;;;;;;;;4991254;28;20026;-77
2021/12/14 04:27:54;;;;;;;22.90;12.77;;;;;;;;;;4991125;28;20105;-78
2021/12/14 04:30:22;;;;;;;27.08;13.18;;;;;;;;;;4991112;28;20022;-78
2021/12/14 04:32:51;;;;;;;23.13;12.13;;;;;;;;;;4992722;28;20117;-75
2021/12/14 04:35:18;;;;;;;24.35;13.02;;;;;;;;;;4994951;28;20022;-78
2021/12/14 04:37:48;;;;;;;24.95;12.43;;;;;;;;;;4994731;28;20042;-77
2021/12/14 04:40:37;;;;;;;26.10;13.05;;;;;;;;;;4987950;28;20019;-77
2021/12/14 04:51:58;;;;;;;31.83;14.45;;;;;;;;;;4993651;28;20544;-74
2021/12/14 04:54:38;;;;;;;27.45;13.77;;;;;;;;;;4993094;28;20014;-74
2021/12/14 04:57:05;;;;;;;25.23;13.60;;;;;;;;;;4993502;28;20026;-73
2021/12/14 04:59:34;;;;;;;30.85;14.38;;;;;;;;;;4991405;28;20026;-75
2021/12/14 05:02:10;;;;;;;31.35;15.82;;;;;;;;;;4994143;28;20072;-77
2021/12/14 05:04:37;;;;;;;29.90;14.10;;;;;;;;;;4995026;28;20503;-77
2021/12/14 05:07:25;;;;;;;29.67;14.10;;;;;;;;;;4995288;28;20049;-75
2021/12/14 05:09:48;;;;;;;27.90;14.02;;;;;;;;;;4992488;28;20514;-74
2021/12/14 05:12:19;;;;;;;31.77;14.07;;;;;;;;;;4993152;28;20022;-75
2021/12/14 05:14:45;;;;;;;36.00;15.63;;;;;;;;;;4988506;28;20037;-75
2021/12/14 05:17:16;;;;;;;26.83;13.40;;;;;;;;;;4993609;28;20034;-76
2021/12/14 05:19:43;;;;;;;29.55;14.85;;;;;;;;;;4992813;28;20084;-75
2021/12/14 05:22:12;;;;;;;29.75;14.35;;;;;;;;;;4993062;28;20026;-75
2021/12/14 05:24:40;;;;;;;26.48;13.38;;;;;;;;;;4992860;28;20019;-76
2021/12/14 05:27:09;;;;;;;25.25;12.70;;;;;;;;;;4991832;28;20037;-75
2021/12/14 05:29:35;;;;;;;24.75;13.00;;;;;;;;;;4992575;28;20026;-75
2021/12/14 05:32:03;;;;;;;23.98;11.55;;;;;;;;;;4993058;28;20029;-76
2021/12/14 05:34:29;;;;;;;27.80;14.73;;;;;;;;;;4991209;28;20109;-75
2021/12/14 05:36:55;;;;;;;23.95;11.75;;;;;;;;;;4973579;28;20058;-73
2021/12/14 05:44:39;;;;;;;25.67;13.57;;;;;;;;;;4991803;28;20038;-75
2021/12/14 05:47:10;;;;;;;26.83;12.52;;;;;;;;;;4993241;28;20500;-75
2021/12/14 05:49:41;;;;;;;19.42;10.02;;;;;;;;;;4992318;28;20027;-74
2021/12/14 05:52:11;;;;;;;22.38;12.27;;;;;;;;;;4992470;28;20026;-75
2021/12/14 05:54:38;;;;;;;23.92;10.70;;;;;;;;;;4992132;28;20023;-75
2021/12/14 05:57:05;;;;;;;22.23;11.30;;;;;;;;;;4992544;28;20034;-75
2021/12/14 05:59:33;;;;;;;22.17;12.35;;;;;;;;;;4992343;28;20514;-75
2021/12/14 06:02:00;;;;;;;21.02;10.90;;;;;;;;;;4992326;28;20034;-73
2021/12/14 06:04:27;;;;;;;16.65;9.38;;;;;;;;;;4992720;28;20092;-73
2021/12/14 06:06:54;;;;;;;17.80;10.93;;;;;;;;;;4991517;28;20109;-75
2021/12/14 06:09:28;;;;;;;81.40;50.90;;;;;;;;;;4991758;28;20238;-75
2021/12/14 06:12:16;;;;;;;52.83;47.20;;;;;;;;;;4992530;28;20023;-73
2021/12/14 06:14:51;;;;;;;13.52;8.27;;;;;;;;;;4991789;28;20022;-73
2021/12/14 06:17:26;;;;;;;15.85;8.48;;;;;;;;;;4992545;28;20050;-75
2021/12/14 06:19:54;;;;;;;17.15;8.80;;;;;;;;;;4987446;28;20113;-75
2021/12/14 06:22:22;;;;;;;18.95;9.95;;;;;;;;;;4978640;28;20428;-76
2021/12/14 06:24:54;;;;;;;17.17;8.38;;;;;;;;;;4974140;28;20050;-75
2021/12/14 06:27:22;;;;;;;21.05;10.35;;;;;;;;;;4992139;28;20037;-75
2021/12/14 06:29:51;;;;;;;18.75;9.52;;;;;;;;;;4991676;28;20088;-75
2021/12/14 06:32:44;;;;;;;16.65;8.45;;;;;;;;;;4990450;28;20037;-75
2021/12/14 06:35:35;;;;;;;17.30;8.20;;;;;;;;;;4991525;28;20416;-76
2021/12/14 06:40:50;;;;;;;12.88;7.93;;;;;;;;;;4992028;28;20093;-76
2021/12/14 06:43:21;;;;;;;14.55;7.53;;;;;;;;;;4992745;28;20375;-74
2021/12/14 06:45:55;;;;;;;11.85;6.65;;;;;;;;;;4991100;28;20030;-76
2021/12/14 06:48:33;;;;;;;12.15;6.40;;;;;;;;;;4992911;28;20066;-75
2021/12/14 06:51:27;;;;;;;12.60;6.10;;;;;;;;;;4991639;28;20112;-76
2021/12/14 06:53:58;;;;;;;13.10;6.85;;;;;;;;;;4982434;28;20047;-76
2021/12/14 06:56:26;;;;;;;10.95;6.75;;;;;;;;;;4990304;28;20037;-75
2021/12/14 06:59:00;;;;;;;12.13;7.32;;;;;;;;;;4990731;28;20034;-76
2021/12/14 07:01:46;;;;;;;11.98;6.38;;;;;;;;;;4982776;28;20515;-74
2021/12/14 07:04:16;;;;;;;12.50;7.05;;;;;;;;;;4981080;28;20037;-72
2021/12/14 07:06:48;;;;;;;12.02;6.65;;;;;;;;;;4979206;28;20727;-73
2021/12/14 07:09:21;;;;;;;11.70;6.90;;;;;;;;;;4968927;28;20041;-72
2021/12/14 07:11:54;;;;;;;;;;;;;;;;;;4985702;28;20084;-74
2021/12/14 07:14:26;;;;;;;12.70;7.50;;;;;;;;;;4986145;28;19918;-75
2021/12/14 07:16:51;;;;;;;14.40;6.80;;;;;;;;;;4985038;28;20062;-74
2021/12/14 07:19:17;;;;;;;12.15;7.32;;;;;;;;;;4985941;28;20112;-75
2021/12/14 07:21:46;;;;;;;12.52;6.72;;;;;;;;;;4975178;28;20022;-76
2021/12/14 07:24:20;;;;;;;12.82;6.78;;;;;;;;;;4978542;28;20065;-76
2021/12/14 07:26:46;;;;;;;10.93;6.07;;;;;;;;;;4973547;28;20038;-74
2021/12/14 07:29:11;;;;;;;11.98;7.15;;;;;;;;;;4977282;28;20512;-75
2021/12/14 07:31:41;;;;;;;12.70;7.40;;;;;;;;;;4980576;28;20038;-75
2021/12/14 07:34:06;;;;;;;11.45;6.95;;;;;;;;;;4976079;28;20022;-73
2021/12/14 07:36:36;;;;;;;13.80;7.53;;;;;;;;;;4978407;28;20018;-74
2021/12/14 07:39:06;;;;;;;15.15;7.30;;;;;;;;;;4986741;28;20026;-76
2021/12/14 07:41:37;;;;;;;13.10;6.47;;;;;;;;;;4986959;28;20376;-75
2021/12/14 07:44:10;;;;;;;10.30;5.85;;;;;;;;;;4978330;28;20049;-74
2021/12/14 07:46:44;;;;;;;11.65;6.43;;;;;;;;;;4973332;28;20030;-76
2021/12/14 07:49:36;;;;;;;12.02;6.70;;;;;;;;;;4986518;28;20037;-76
2021/12/14 07:52:07;;;;;;;12.27;6.47;;;;;;;;;;4985659;28;20034;-75
2021/12/14 07:54:41;;;;;;;11.32;6.95;;;;;;;;;;4986087;28;20030;-74
2021/12/14 07:57:20;;;;;;;12.63;6.57;;;;;;;;;;4987063;28;20432;-75
2021/12/14 07:59:52;;;;;;;11.30;6.20;;;;;;;;;;4984010;28;20030;-75
2021/12/14 08:02:31;;;;;;;12.35;6.20;;;;;;;;;;4973878;28;20492;-74
2021/12/14 08:05:23;;;;;;;9.93;5.45;;;;;;;;;;4974928;28;20134;-74
2021/12/14 08:07:55;;;;;;;11.43;5.85;;;;;;;;;;4979304;28;20022;-75
2021/12/14 08:10:27;;;;;;;10.57;6.00;;;;;;;;;;4976826;28;20480;-75
2021/12/14 08:12:53;;;;;;;11.27;6.35;;;;;;;;;;4968121;28;20283;-73
2021/12/14 08:15:21;;;;;;;9.30;5.40;;;;;;;;;;4978453;28;20153;-74
2021/12/14 08:18:11;;;;;;;10.35;4.85;;;;;;;;;;4984299;28;20511;-74
2021/12/14 08:21:02;;;;;;;10.25;5.57;;;;;;;;;;4986497;28;20030;-74
2021/12/14 08:23:37;;;;;;;10.18;4.85;;;;;;;;;;4978664;28;20050;-74
2021/12/14 08:26:13;;;;;;;9.63;4.80;;;;;;;;;;4984508;28;20034;-73
2021/12/14 08:28:50;;;;;;;11.70;6.70;;;;;;;;;;4973182;28;20391;-72
2021/12/14 08:31:16;;;;;;;9.95;5.47;;;;;;;;;;4986083;28;20030;-72
2021/12/14 08:33:42;;;;;;;10.10;5.40;;;;;;;;;;4985377;28;20030;-75
2021/12/14 08:36:13;;;;;;;10.00;5.32;;;;;;;;;;4981724;28;20105;-75
2021/12/14 08:38:39;;;;;;;18.95;10.70;;;;;;;;;;4985641;28;20029;-73
2021/12/14 08:41:15;;;;;;;9.98;5.00;;;;;;;;;;4986856;28;20026;-75
2021/12/14 08:43:48;;;;;;;10.45;4.95;;;;;;;;;;4986072;28;20427;-75
2021/12/14 08:46:22;;;;;;;7.88;4.35;;;;;;;;;;4983285;28;20101;-75
2021/12/14 08:49:00;;;;;;;9.90;4.95;;;;;;;;;;4980879;28;20695;-75
2021/12/14 08:51:32;;;;;;;10.48;5.63;;;;;;;;;;4979136;28;20369;-75
2021/12/14 08:54:00;;;;;;;11.75;5.50;;;;;;;;;;4979546;28;20419;-74
2021/12/14 08:56:30;;;;;;;10.52;5.60;;;;;;;;;;4980218;28;20117;-74
2021/12/14 08:58:55;;;;;;;9.27;5.07;;;;;;;;;;4977153;28;20126;-74
2021/12/14 09:01:25;;;;;;;11.25;5.57;;;;;;;;;;4976812;28;20052;-75
2021/12/14 09:04:02;;;;;;;11.90;5.30;;;;;;;;;;4982064;28;20037;-75
2021/12/14 09:06:35;;;;;;;10.23;5.53;;;;;;;;;;4979153;28;20373;-75
2021/12/14 09:09:03;;;;;;;;;;;;;;;;;;5008530;22;20032;-74
2021/12/14 09:11:32;;;;;;;10.20;5.30;;;;;;;;;;5044039;28;19925;-73
2021/12/14 09:13:58;;;;;;;10.65;5.63;;;;;;;;;;5029163;28;20036;-73
2021/12/14 09:16:27;;;;;;;11.45;5.65;;;;;;;;;;5017254;28;20061;-73
2021/12/14 09:18:58;;;;;;;10.60;6.07;;;;;;;;;;5025222;28;20219;-73
2021/12/14 09:21:30;;;;;;;13.10;6.68;;;;;;;;;;5027859;28;20029;-73
2021/12/14 09:24:00;;;;;;;10.05;5.93;;;;;;;;;;5026615;28;20048;-73
2021/12/14 09:26:28;;;;;;;10.70;5.85;;;;;;;;;;5023780;28;20022;-74
2021/12/14 09:28:54;;;;;;;13.82;5.65;;;;;;;;;;5030151;28;20068;-73
2021/12/14 09:31:24;;;;;;;11.57;5.45;;;;;;;;;;5022585;28;20030;-73
2021/12/14 09:33:52;;;;;;;11.10;5.25;;;;;;;;;;5035984;28;20111;-74
2021/12/14 09:36:18;;;;;;;10.60;5.38;;;;;;;;;;5027810;28;20229;-73
2021/12/14 09:38:49;;;;;;;11.63;5.65;;;;;;;;;;5023910;28;20029;-73
2021/12/14 09:41:18;;;;;;;12.10;5.28;;;;;;;;;;5017526;28;20030;-73
2021/12/14 09:43:46;;;;;;;9.57;5.57;;;;;;;;;;5016412;28;20450;-73
2021/12/14 09:46:13;;;;;;;10.52;5.30;;;;;;;;;;5017034;28;20781;-73
2021/12/14 09:48:49;;;;;;;11.77;5.22;;;;;;;;;;5019899;28;20153;-73
2021/12/14 09:51:20;;;;;;;11.10;5.45;;;;;;;;;;5015219;28;20028;-73
2021/12/14 09:53:51;;;;;;;11.23;5.80;;;;;;;;;;5019666;28;20391;-72
2021/12/14 09:56:20;;;;;;;10.18;5.57;;;;;;;;;;5022808;28;20030;-73
2021/12/14 09:58:49;;;;;;;12.80;6.20;;;;;;;;;;5026157;28;20368;-72
2021/12/14 10:01:22;;;;;;;9.70;4.95;;;;;;;;;;5020108;28;20407;-73
2021/12/14 10:03:49;;;;;;;;;;;;;;;;;;5022991;28;20033;-72
2021/12/14 10:06:18;;;;;;;10.05;5.97;;;;;;;;;;5027093;28;20381;-73
2021/12/14 10:08:48;;;;;;;11.52;5.40;;;;;;;;;;5023886;28;20032;-72
2021/12/14 10:11:27;;;;;;;12.48;5.65;;;;;;;;;;5023061;28;20028;-72
2021/12/14 10:13:56;;;;;;;14.43;7.00;;;;;;;;;;5027025;28;20358;-73
2021/12/14 10:16:22;;;;;;;12.73;7.25;;;;;;;;;;5025996;28;20041;-73
2021/12/14 10:18:54;;;;;;;30.52;15.75;;;;;;;;;;5021873;28;20033;-74
2021/12/14 10:21:26;;;;;;;169.73;64.60;;;;;;;;;;5028161;28;20017;-73
2021/12/14 10:23:52;;;;;;;84.15;33.53;;;;;;;;;;5024702;28;20053;-73
2021/12/14 10:26:20;;;;;;;30.08;13.95;;;;;;;;;;5027242;28;20033;-73
2021/12/14 10:28:48;;;;;;;19.08;11.07;;;;;;;;;;5016421;28;20041;-73
2021/12/14 10:31:20;;;;;;;34.03;18.85;;;;;;;;;;5009352;28;20472;-72
2021/12/14 10:33:46;;;;;;;18.53;10.83;;;;;;;;;;5025773;28;20030;-75
2021/12/14 10:36:25;;;;;;;10.70;5.47;;;;;;;;;;5026042;28;20037;-75
2021/12/14 10:44:23;;;;;;;11.95;7.03;;;;;;;;;;5026981;28;20135;-73
2021/12/14 10:46:52;;;;;;;11.10;5.97;;;;;;;;;;5025521;28;20093;-73
2021/12/14 10:49:19;;;;;;;20.23;12.57;;;;;;;;;;5026596;28;20025;-74
2021/12/14 10:51:48;;;;;;;15.20;8.40;;;;;;;;;;5026226;28;20039;-73
2021/12/14 10:54:15;;;;;;;12.00;7.20;;;;;;;;;;5021211;28;20026;-73
2021/12/14 10:56:54;;;;;;;29.27;17.98;;;;;;;;;;5024580;28;20041;-74
2021/12/14 10:59:24;;;;;;;12.00;6.95;;;;;;;;;;5022329;28;20076;-74
2021/12/14 11:01:51;;;;;;;13.00;7.68;;;;;;;;;;5017824;28;20029;-75
2021/12/14 11:04:26;;;;;;;13.73;7.15;;;;;;;;;;5020322;28;20018;-75
2021/12/14 11:06:53;;;;;;;24.15;14.52;;;;;;;;;;5010541;28;20030;-75
2021/12/14 11:09:45;;;;;;;11.75;5.82;;;;;;;;;;5019812;28;20025;-75
2021/12/14 11:12:23;;;;;;;12.07;6.35;;;;;;;;;;5030498;28;20390;-74
2021/12/14 11:14:54;;;;;;;15.88;9.25;;;;;;;;;;5011119;28;20030;-74
2021/12/14 11:20:43;;;;;;;9.75;5.40;;;;;;;;;;5010224;28;20399;-75
2021/12/14 11:23:09;;;;;;;9.27;5.45;;;;;;;;;;5010287;28;20045;-75
2021/12/14 11:25:49;;;;;;;11.15;5.70;;;;;;;;;;5020981;28;20022;-75
2021/12/14 11:28:31;;;;;;;10.30;5.45;;;;;;;;;;5014980;28;20041;-75
2021/12/14 11:31:05;;;;;;;12.55;6.60;;;;;;;;;;5011806;28;20022;-75
2021/12/14 11:33:42;;;;;;;12.60;6.32;;;;;;;;;;5019257;28;20021;-75
2021/12/14 11:36:24;;;;;;;12.77;6.25;;;;;;;;;;5029512;28;20048;-75
2021/12/14 11:38:58;;;;;;;13.25;6.07;;;;;;;;;;5029849;28;20033;-75
2021/12/14 11:41:40;;;;;;;12.50;6.55;;;;;;;;;;5029968;28;20031;-75
2021/12/14 11:44:14;;;;;;;12.95;6.80;;;;;;;;;;5029128;28;20455;-75
2021/12/14 11:46:56;;;;;;;9.07;5.03;;;;;;;;;;5024427;28;20029;-75
2021/12/14 11:49:25;;;;;;;10.63;5.65;;;;;;;;;;5009850;28;20025;-75
2021/12/14 11:51:52;;;;;;;12.40;6.05;;;;;;;;;;5029112;28;20486;-75
2021/12/14 11:54:20;;;;;;;16.80;8.45;;;;;;;;;;5021615;28;21173;-75
2021/12/14 11:56:49;;;;;;;13.10;6.30;;;;;;;;;;5029669;28;20040;-75
2021/12/14 11:59:15;;;;;;;10.45;5.70;;;;;;;;;;5026971;28;20030;-75
2021/12/14 12:01:52;;;;;;;12.82;5.93;;;;;;;;;;5009867;28;20032;-75
2021/12/14 12:04:34;;;;;;;13.65;6.60;;;;;;;;;;5019644;28;20522;-75
2021/12/14 12:09:52;;;;;;;10.63;5.60;;;;;;;;;;5015010;28;20033;-75
2021/12/14 12:12:29;;;;;;;12.75;6.72;;;;;;;;;;5009693;28;20071;-75
2021/12/14 12:15:09;;;;;;;12.32;6.25;;;;;;;;;;5029138;28;20021;-75
2021/12/14 12:17:48;;;;;;;13.60;7.60;;;;;;;;;;5028096;28;20033;-75
2021/12/14 12:20:16;;;;;;;19.45;8.85;;;;;;;;;;5028984;28;20022;-75
2021/12/14 12:23:06;;;;;;;11.52;6.38;;;;;;;;;;5026978;28;20548;-75
2021/12/14 12:25:41;;;;;;;11.80;6.65;;;;;;;;;;5027146;28;20041;-75
2021/12/14 12:28:12;;;;;;;11.85;6.45;;;;;;;;;;5029506;28;20033;-75
2021/12/14 12:30:44;;;;;;;14.85;6.45;;;;;;;;;;5025512;28;20463;-75
2021/12/14 12:33:24;;;;;;;11.90;6.20;;;;;;;;;;5026674;28;20025;-75
2021/12/14 12:35:55;;;;;;;13.52;5.95;;;;;;;;;;5021981;28;20026;-75
2021/12/14 12:38:28;;;;;;;12.40;5.82;;;;;;;;;;5022808;28;20036;-75
2021/12/14 12:41:07;;;;;;;12.80;6.13;;;;;;;;;;5028886;28;20028;-75
2021/12/14 12:43:41;;;;;;;13.38;7.10;;;;;;;;;;5028273;28;20028;-75
2021/12/14 12:46:22;;;;;;;12.95;6.85;;;;;;;;;;5028188;28;20025;-75
2021/12/14 12:49:18;;;;;;;12.50;6.50;;;;;;;;;;5026625;28;20356;-75
2021/12/14 12:51:50;;;;;;;13.32;6.53;;;;;;;;;;5028085;28;20128;-75
2021/12/14 12:54:24;;;;;;;12.55;6.13;;;;;;;;;;5022397;28;20490;-75
2021/12/14 12:57:12;;;;;;;12.23;6.07;;;;;;;;;;5014438;28;20069;-75
2021/12/14 12:59:49;;;;;;;13.90;7.18;;;;;;;;;;5011823;28;20116;-75
2021/12/14 13:02:25;;;;;;;13.50;6.78;;;;;;;;;;5030150;28;20033;-75
2021/12/14 13:05:18;;;;;;;13.63;7.35;;;;;;;;;;5032135;28;20021;-75
2021/12/14 13:07:49;;;;;;;;;;;;;;;;;;5030314;28;20021;-75
2021/12/14 13:10:24;;;;;;;16.35;7.40;;;;;;;;;;5020883;28;19914;-75
2021/12/14 13:12:55;;;;;;;15.30;7.03;;;;;;;;;;5025295;28;20435;-73
2021/12/14 13:15:59;;;;;;;13.35;6.68;;;;;;;;;;5031302;28;20014;-74
2021/12/14 13:18:31;;;;;;;13.93;7.20;;;;;;;;;;5012488;28;20084;-74
2021/12/14 13:21:24;;;;;;;14.85;6.78;;;;;;;;;;5023058;28;20032;-74
2021/12/14 13:23:54;;;;;;;;;;;;;;;;;;5027431;28;20117;-79
2021/12/14 13:26:25;;;;;;;14.65;6.65;;;;;;;;;;5012231;28;19920;-74
2021/12/14 13:28:53;;;;;;;11.80;6.35;;;;;;;;;;5011996;28;20388;-75
2021/12/14 13:31:27;;;;;;;18.25;8.45;;;;;;;;;;5026324;28;20021;-76
2021/12/14 13:33:53;;;;;;;13.85;7.07;;;;;;;;;;5020884;28;20033;-75
2021/12/14 13:36:18;;;;;;;17.25;8.27;;;;;;;;;;5022219;28;20052;-75
2021/12/14 13:38:43;;;;;;;17.60;7.55;;;;;;;;;;5011855;28;20025;-75
2021/12/14 13:41:25;;;;;;;13.75;7.03;;;;;;;;;;5012399;28;20712;-75
2021/12/14 13:43:50;;;;;;;18.15;8.50;;;;;;;;;;5017027;28;20025;-76
2021/12/14 13:46:16;;;;;;;16.40;8.65;;;;;;;;;;5030720;28;20405;-76
2021/12/14 13:48:41;;;;;;;15.80;7.80;;;;;;;;;;5029917;28;20033;-75
2021/12/14 13:51:13;;;;;;;16.38;7.43;;;;;;;;;;5026779;28;20026;-75
2021/12/14 13:53:40;;;;;;;27.15;15.27;;;;;;;;;;5020442;28;20079;-76
2021/12/14 13:56:10;;;;;;;17.27;8.15;;;;;;;;;;5023233;28;20586;-76
2021/12/14 13:58:38;;;;;;;13.63;7.82;;;;;;;;;;5030258;28;20033;-76
2021/12/14 14:01:12;;;;;;;17.90;7.68;;;;;;;;;;5030179;28;20053;-75
2021/12/14 14:03:40;;;;;;;15.80;7.65;;;;;;;;;;5013678;28;20100;-75
2021/12/14 14:06:09;;;;;;;18.67;8.93;;;;;;;;;;5011375;28;20061;-75
2021/12/14 14:08:40;;;;;;;18.15;8.30;;;;;;;;;;5024814;28;20021;-75
2021/12/14 14:11:14;;;;;;;18.38;10.00;;;;;;;;;;5024822;28;20030;-75
2021/12/14 14:13:41;;;;;;;31.13;15.93;;;;;;;;;;5011520;28;20461;-75
2021/12/14 14:16:08;;;;;;;17.30;8.32;;;;;;;;;;5011687;28;20500;-75
2021/12/14 14:18:44;;;;;;;14.43;7.10;;;;;;;;;;5019408;28;20096;-75
2021/12/14 14:21:12;;;;;;;15.63;7.38;;;;;;;;;;5026352;28;20025;-75
2021/12/14 14:23:46;;;;;;;12.10;7.00;;;;;;;;;;5019838;28;20030;-75
2021/12/14 14:26:17;;;;;;;13.65;7.10;;;;;;;;;;5012908;28;20435;-75
2021/12/14 14:28:45;;;;;;;12.80;6.75;;;;;;;;;;5031102;28;20120;-75
2021/12/14 14:31:39;;;;;;;40.50;22.83;;;;;;;;;;5030020;28;20025;-75
2021/12/14 14:34:34;;;;;;;28.45;15.15;;;;;;;;;;5028788;28;20117;-75
2021/12/14 14:37:16;;;;;;;19.10;10.77;;;;;;;;;;5015813;28;20475;-75
2021/12/14 14:39:45;;;;;;;12.27;6.03;;;;;;;;;;5008762;28;20025;-75
2021/12/14 14:42:26;;;;;;;11.63;6.03;;;;;;;;;;5010934;28;20030;-75
2021/12/14 14:44:53;;;;;;;15.68;7.18;;;;;;;;;;5028876;28;20506;-75
2021/12/14 14:47:35;;;;;;;13.30;6.55;;;;;;;;;;5011780;28;20065;-75
2021/12/14 14:50:16;;;;;;;15.18;8.48;;;;;;;;;;5020345;28;20026;-75
2021/12/14 14:52:56;;;;;;;13.73;7.25;;;;;;;;;;5027442;28;20112;-75
2021/12/14 14:55:51;;;;;;;14.43;6.95;;;;;;;;;;5023480;28;20083;-75
2021/12/14 14:58:26;;;;;;;13.82;7.85;;;;;;;;;;5023447;28;20444;-75
2021/12/14 15:01:18;;;;;;;15.98;8.15;;;;;;;;;;5028786;28;20284;-74
2021/12/14 15:03:50;;;;;;;16.40;9.52;;;;;;;;;;5024677;28;20044;-75
2021/12/14 15:06:18;;;;;;;15.50;8.07;;;;;;;;;;5010623;28;20030;-74
2021/12/14 15:08:51;;;;;;;22.23;11.40;;;;;;;;;;5010782;28;20025;-74
2021/12/14 15:11:27;;;;;;;27.75;14.25;;;;;;;;;;5011800;28;20032;-75
2021/12/14 15:14:17;;;;;;;19.15;10.00;;;;;;;;;;5016796;28;20331;-74
2021/12/14 15:16:47;;;;;;;21.88;11.68;;;;;;;;;;5011187;28;20030;-74
2021/12/14 15:19:20;;;;;;;16.92;9.30;;;;;;;;;;5030155;28;20037;-74
2021/12/14 15:21:48;;;;;;;15.73;8.27;;;;;;;;;;5027995;28;20060;-74
2021/12/14 15:24:25;;;;;;;15.48;8.00;;;;;;;;;;5027007;28;20049;-75
2021/12/14 15:27:08;;;;;;;13.70;8.15;;;;;;;;;;5024942;28;20064;-74
2021/12/14 15:29:34;;;;;;;16.15;8.77;;;;;;;;;;5029295;28;20029;-74
2021/12/14 15:32:17;;;;;;;16.83;7.47;;;;;;;;;;5028472;28;20056;-74
2021/12/14 15:34:57;;;;;;;13.55;7.32;;;;;;;;;;5018108;28;20109;-74
2021/12/14 15:37:39;;;;;;;12.40;6.90;;;;;;;;;;5019137;28;20045;-74
2021/12/14 15:40:24;;;;;;;19.20;10.95;;;;;;;;;;5028812;28;20491;-74